Time;durP1;ratioP1;P1;durP2;ratioP2;P2;SDS_P1;SDS_P2;PMS_P1;PMS_P2;Temp;Humidity;BMP_temperature;BMP_pressure;BME280_temperature;BME280_humidity;BME280_pressure;Samples;Min_cycle;Max_cycle;Signal;HPM_P1;HPM_P2
2023/04/05 00:01:25;;;;;;;18.17;8.13;;;;;;;;;;5012412;28;20026;-71
2023/04/05 00:03:56;;;;;;;18.70;6.80;;;;;;;;;;5010596;28;20026;-71
2023/04/05 00:06:27;;;;;;;13.63;7.00;;;;;;;;;;5012093;28;20061;-72
2023/04/05 00:08:57;;;;;;;18.52;8.15;;;;;;;;;;5012053;28;20030;-72
2023/04/05 00:11:23;;;;;;;18.10;8.13;;;;;;;;;;5011959;28;20115;-72
2023/04/05 00:13:49;;;;;;;25.67;8.37;;;;;;;;;;5011634;28;20052;-72
2023/04/05 00:16:16;;;;;;;18.60;7.50;;;;;;;;;;5012167;28;20061;-73
2023/04/05 00:18:48;;;;;;;22.67;7.80;;;;;;;;;;5010198;28;20037;-72
2023/04/05 00:21:15;;;;;;;20.33;7.70;;;;;;;;;;5011789;28;20076;-71
2023/04/05 00:23:43;;;;;;;21.53;8.13;;;;;;;;;;5011318;28;20025;-72
2023/04/05 00:26:12;;;;;;;18.50;8.70;;;;;;;;;;5009892;28;20490;-72
2023/04/05 00:28:37;;;;;;;16.87;7.90;;;;;;;;;;5012386;28;20033;-73
2023/04/05 00:31:04;;;;;;;19.40;8.30;;;;;;;;;;5012510;28;20026;-72
2023/04/05 00:33:30;;;;;;;23.00;9.37;;;;;;;;;;5011981;28;20025;-72
2023/04/05 00:35:55;;;;;;;21.37;8.73;;;;;;;;;;5011792;28;20098;-72
2023/04/05 00:38:21;;;;;;;17.00;8.73;;;;;;;;;;5011791;28;20088;-72
2023/04/05 00:40:48;;;;;;;16.53;8.83;;;;;;;;;;5025333;28;20036;-72
2023/04/05 00:43:13;;;;;;;20.20;9.67;;;;;;;;;;5030103;28;20071;-71
2023/04/05 00:45:39;;;;;;;20.47;8.97;;;;;;;;;;5031628;28;20022;-71
2023/04/05 00:48:05;;;;;;;21.47;8.97;;;;;;;;;;5030071;28;20041;-72
2023/04/05 00:50:31;;;;;;;29.47;9.67;;;;;;;;;;5031030;28;20029;-71
2023/04/05 00:52:57;;;;;;;25.17;8.90;;;;;;;;;;5029882;28;20134;-71
2023/04/05 00:55:23;;;;;;;21.73;8.53;;;;;;;;;;5029403;28;20025;-71
2023/04/05 00:57:49;;;;;;;20.23;8.67;;;;;;;;;;5031182;28;20029;-71
2023/04/05 01:00:15;;;;;;;16.87;8.23;;;;;;;;;;5030963;28;20503;-71
2023/04/05 01:02:50;;;;;;;21.13;8.53;;;;;;;;;;5030622;28;20268;-72
2023/04/05 01:05:39;;;;;;;25.13;9.70;;;;;;;;;;5029285;28;20029;-71
2023/04/05 01:08:21;;;;;;;23.73;8.67;;;;;;;;;;5030434;28;20021;-71
2023/04/05 01:10:53;;;;;;;16.10;7.93;;;;;;;;;;5029426;28;20049;-73
2023/04/05 01:13:18;;;;;;;20.10;8.38;;;;;;;;;;5030533;28;20057;-71
2023/04/05 01:15:44;;;;;;;19.43;9.37;;;;;;;;;;5030671;28;20459;-72
2023/04/05 01:18:10;;;;;;;18.83;8.57;;;;;;;;;;5029123;28;20021;-71
2023/04/05 01:20:52;;;;;;;22.77;7.97;;;;;;;;;;5030482;28;20381;-72
2023/04/05 01:23:33;;;;;;;21.20;8.68;;;;;;;;;;5030323;28;20079;-72
2023/04/05 01:26:32;;;;;;;18.90;7.93;;;;;;;;;;5028620;28;20033;-71
2023/04/05 01:29:35;;;;;;;14.93;7.23;;;;;;;;;;5029619;28;20124;-72
2023/04/05 01:32:06;;;;;;;;;;;;;;;;;;5029798;28;20389;-72
2023/04/05 01:34:50;;;;;;;22.40;7.53;;;;;;;;;;5028906;28;19908;-72
2023/04/05 01:37:19;;;;;;;19.57;7.40;;;;;;;;;;5028753;28;20385;-72
2023/04/05 01:39:47;;;;;;;15.73;7.87;;;;;;;;;;5023309;28;20037;-72
2023/04/05 01:42:12;;;;;;;24.70;9.40;;;;;;;;;;5008504;28;20046;-72
2023/04/05 01:44:38;;;;;;;19.60;10.07;;;;;;;;;;5009796;28;20063;-72
2023/04/05 01:47:04;;;;;;;19.77;7.70;;;;;;;;;;5010061;28;20072;-72
2023/04/05 01:49:30;;;;;;;22.53;8.00;;;;;;;;;;5008808;28;20419;-72
2023/04/05 01:51:55;;;;;;;18.50;7.67;;;;;;;;;;5010020;28;20029;-72
2023/04/05 01:54:21;;;;;;;18.47;8.63;;;;;;;;;;5010373;28;20037;-72
2023/04/05 01:56:46;;;;;;;14.77;7.87;;;;;;;;;;5009930;28;20038;-72
2023/04/05 01:59:12;;;;;;;16.37;7.50;;;;;;;;;;5010042;28;20064;-72
2023/04/05 02:01:37;;;;;;;19.53;7.47;;;;;;;;;;5010036;28;20447;-72
2023/04/05 02:04:03;;;;;;;19.10;8.70;;;;;;;;;;5008952;28;20490;-72
2023/04/05 02:06:29;;;;;;;14.23;7.27;;;;;;;;;;5008676;28;20022;-72
2023/04/05 02:08:55;;;;;;;18.83;7.83;;;;;;;;;;5009847;28;20386;-73
2023/04/05 02:11:20;;;;;;;19.90;8.53;;;;;;;;;;5008107;28;20034;-72
2023/04/05 02:13:46;;;;;;;15.57;8.13;;;;;;;;;;5009549;28;20113;-72
2023/04/05 02:16:11;;;;;;;14.57;7.20;;;;;;;;;;5009853;28;20030;-72
2023/04/05 02:18:37;;;;;;;16.80;7.30;;;;;;;;;;5009552;28;20171;-72
2023/04/05 02:21:03;;;;;;;15.63;7.07;;;;;;;;;;5007196;28;20104;-73
2023/04/05 02:23:30;;;;;;;20.03;7.90;;;;;;;;;;5020651;28;20040;-73
2023/04/05 02:25:56;;;;;;;21.00;7.87;;;;;;;;;;5029516;28;20112;-71
2023/04/05 02:28:22;;;;;;;16.93;7.13;;;;;;;;;;5029490;28;20317;-72
2023/04/05 02:30:47;;;;;;;16.03;7.77;;;;;;;;;;5029390;28;20436;-73
2023/04/05 02:33:12;;;;;;;15.53;7.27;;;;;;;;;;5029363;28;20544;-72
2023/04/05 02:35:38;;;;;;;20.17;8.33;;;;;;;;;;5028145;28;20116;-73
2023/04/05 02:38:04;;;;;;;13.10;7.13;;;;;;;;;;5030238;28;20366;-72
2023/04/05 02:40:30;;;;;;;13.70;7.60;;;;;;;;;;5029522;28;20079;-71
2023/04/05 02:42:56;;;;;;;17.03;8.17;;;;;;;;;;5028240;28;20038;-72
2023/04/05 02:45:22;;;;;;;13.87;7.90;;;;;;;;;;5030118;28;20322;-71
2023/04/05 02:47:47;;;;;;;28.30;8.93;;;;;;;;;;5028388;28;20032;-70
2023/04/05 02:50:13;;;;;;;18.67;7.80;;;;;;;;;;5028074;28;20033;-73
2023/04/05 02:52:39;;;;;;;18.73;7.07;;;;;;;;;;5029903;28;20060;-71
2023/04/05 02:55:05;;;;;;;21.97;8.17;;;;;;;;;;5028762;28;20021;-72
2023/04/05 02:57:31;;;;;;;19.13;7.43;;;;;;;;;;5028615;28;20055;-71
2023/04/05 02:59:56;;;;;;;15.73;7.50;;;;;;;;;;5029070;28;20018;-72
2023/04/05 03:02:22;;;;;;;19.60;8.50;;;;;;;;;;5029263;28;20033;-72
2023/04/05 03:04:47;;;;;;;14.67;7.73;;;;;;;;;;5028603;28;20534;-72
2023/04/05 03:07:17;;;;;;;20.83;7.90;;;;;;;;;;5028709;28;20029;-72
2023/04/05 03:09:45;;;;;;;19.67;7.57;;;;;;;;;;5028446;28;20059;-72
2023/04/05 03:12:11;;;;;;;16.40;7.87;;;;;;;;;;5027980;28;20025;-73
2023/04/05 03:14:38;;;;;;;14.17;7.23;;;;;;;;;;5028651;28;20379;-72
2023/04/05 03:17:05;;;;;;;29.57;7.87;;;;;;;;;;5028473;28;20633;-70
2023/04/05 03:19:30;;;;;;;17.30;8.10;;;;;;;;;;5028349;28;20041;-72
2023/04/05 03:21:57;;;;;;;18.47;7.30;;;;;;;;;;5027825;28;20053;-71
2023/04/05 03:24:22;;;;;;;17.67;8.00;;;;;;;;;;5029348;28;20118;-72
2023/04/05 03:26:48;;;;;;;17.80;7.07;;;;;;;;;;5027557;28;20022;-72
2023/04/05 03:29:15;;;;;;;20.73;8.07;;;;;;;;;;5028922;28;20540;-71
2023/04/05 03:31:41;;;;;;;12.57;7.37;;;;;;;;;;5029381;28;20549;-72
2023/04/05 03:34:06;;;;;;;21.93;7.67;;;;;;;;;;5032217;28;20093;-73
2023/04/05 03:36:41;;;;;;;15.40;7.70;;;;;;;;;;5032373;28;20432;-72
2023/04/05 03:39:10;;;;;;;17.87;7.50;;;;;;;;;;5031355;28;20139;-72
2023/04/05 03:41:37;;;;;;;17.33;6.80;;;;;;;;;;5012816;28;20041;-73
2023/04/05 03:44:03;;;;;;;14.17;7.70;;;;;;;;;;5011283;28;20259;-73
2023/04/05 03:46:28;;;;;;;24.90;7.67;;;;;;;;;;5024145;28;20090;-72
2023/04/05 03:48:56;;;;;;;20.27;7.67;;;;;;;;;;5033534;28;20060;-71
2023/04/05 03:51:21;;;;;;;19.03;7.37;;;;;;;;;;5032680;28;20119;-72
2023/04/05 03:53:46;;;;;;;19.57;8.37;;;;;;;;;;5031531;28;20142;-73
2023/04/05 03:56:12;;;;;;;23.37;8.40;;;;;;;;;;5032430;28;20041;-73
2023/04/05 03:58:38;;;;;;;22.00;10.10;;;;;;;;;;5031859;28;20038;-71
2023/04/05 04:01:03;;;;;;;14.23;7.17;;;;;;;;;;5031905;28;20029;-71
2023/04/05 04:03:29;;;;;;;22.07;7.83;;;;;;;;;;5032618;28;20163;-71
2023/04/05 04:05:56;;;;;;;16.77;7.67;;;;;;;;;;5031856;28;20029;-72
2023/04/05 04:08:22;;;;;;;22.03;8.70;;;;;;;;;;5032897;28;20056;-72
2023/04/05 04:10:48;;;;;;;21.53;9.00;;;;;;;;;;5031830;28;20036;-72
2023/04/05 04:13:13;;;;;;;16.17;7.60;;;;;;;;;;5031788;28;20068;-72
2023/04/05 04:15:39;;;;;;;18.90;8.93;;;;;;;;;;5031559;28;20053;-72
2023/04/05 04:18:04;;;;;;;17.07;8.40;;;;;;;;;;5030027;28;20030;-72
2023/04/05 04:20:30;;;;;;;17.33;7.50;;;;;;;;;;5031997;28;20033;-72
2023/04/05 04:22:57;;;;;;;22.63;9.90;;;;;;;;;;5031523;28;20029;-71
2023/04/05 04:25:25;;;;;;;19.73;8.33;;;;;;;;;;5031344;28;20033;-73
2023/04/05 04:27:51;;;;;;;19.73;8.83;;;;;;;;;;5030225;28;20095;-73
2023/04/05 04:30:21;;;;;;;20.10;7.33;;;;;;;;;;5031625;28;20105;-73
2023/04/05 04:32:55;;;;;;;18.37;7.33;;;;;;;;;;5029687;28;20175;-72
2023/04/05 04:35:26;;;;;;;21.57;7.87;;;;;;;;;;5029921;28;20293;-70
2023/04/05 04:38:00;;;;;;;16.23;7.85;;;;;;;;;;5031119;28;20116;-73
2023/04/05 04:40:39;;;;;;;21.27;8.03;;;;;;;;;;5029566;28;20033;-72
2023/04/05 04:43:05;;;;;;;17.20;7.83;;;;;;;;;;5028743;28;20118;-73
2023/04/05 04:45:33;;;;;;;17.30;7.60;;;;;;;;;;5029580;28;20021;-73
2023/04/05 04:47:59;;;;;;;19.60;9.00;;;;;;;;;;5030649;28;20021;-73
2023/04/05 04:50:26;;;;;;;16.93;8.67;;;;;;;;;;5030100;28;20036;-72
2023/04/05 04:52:51;;;;;;;19.13;9.20;;;;;;;;;;5030452;28;20032;-72
2023/04/05 04:55:24;;;;;;;13.13;6.97;;;;;;;;;;5030955;28;20022;-72
2023/04/05 04:57:51;;;;;;;14.30;7.72;;;;;;;;;;5030746;28;20033;-72
2023/04/05 05:00:17;;;;;;;16.60;7.30;;;;;;;;;;5030722;28;20167;-73
2023/04/05 05:02:43;;;;;;;18.57;8.37;;;;;;;;;;5030482;28;20117;-72
2023/04/05 05:05:10;;;;;;;18.60;7.60;;;;;;;;;;5028670;28;20030;-73
2023/04/05 05:07:36;;;;;;;29.03;13.47;;;;;;;;;;5029127;28;20052;-73
2023/04/05 05:10:02;;;;;;;22.73;8.90;;;;;;;;;;5028784;28;20484;-73
2023/04/05 05:12:30;;;;;;;24.70;7.03;;;;;;;;;;5030907;28;20747;-74
2023/04/05 05:14:55;;;;;;;20.70;8.53;;;;;;;;;;5029989;28;20068;-72
2023/04/05 05:17:22;;;;;;;14.37;7.93;;;;;;;;;;5007306;28;20025;-72
2023/04/05 05:19:47;;;;;;;19.90;8.83;;;;;;;;;;5015601;28;20112;-73
2023/04/05 05:22:13;;;;;;;20.70;8.67;;;;;;;;;;5018024;28;20025;-74
2023/04/05 05:24:38;;;;;;;16.60;8.17;;;;;;;;;;5030998;28;20037;-75
2023/04/05 05:27:04;;;;;;;27.87;9.80;;;;;;;;;;5029249;28;20025;-72
2023/04/05 05:29:30;;;;;;;18.67;8.63;;;;;;;;;;5025933;28;20374;-73
2023/04/05 05:31:56;;;;;;;16.80;6.87;;;;;;;;;;5015115;28;20060;-73
2023/04/05 05:34:21;;;;;;;19.17;7.57;;;;;;;;;;5030262;28;20531;-71
2023/04/05 05:36:47;;;;;;;14.10;7.83;;;;;;;;;;5028607;28;20025;-72
2023/04/05 05:39:12;;;;;;;19.97;8.70;;;;;;;;;;5027586;28;20033;-73
2023/04/05 05:41:38;;;;;;;17.30;8.23;;;;;;;;;;5012269;28;20498;-73
2023/04/05 05:44:04;;;;;;;24.23;8.07;;;;;;;;;;5030727;28;20100;-76
2023/04/05 05:46:30;;;;;;;17.57;8.20;;;;;;;;;;5024844;28;20405;-72
2023/04/05 05:48:55;;;;;;;23.07;8.03;;;;;;;;;;5030979;28;20029;-73
2023/04/05 05:51:21;;;;;;;25.80;9.27;;;;;;;;;;5030911;28;20033;-72
2023/04/05 05:53:46;;;;;;;15.57;8.23;;;;;;;;;;5027486;28;20052;-73
2023/04/05 05:56:12;;;;;;;17.37;8.20;;;;;;;;;;5020190;28;20374;-73
2023/04/05 05:58:38;;;;;;;20.70;7.70;;;;;;;;;;5027102;28;20212;-73
2023/04/05 06:01:06;;;;;;;18.07;7.10;;;;;;;;;;5032128;28;20538;-72
2023/04/05 06:03:32;;;;;;;15.83;7.60;;;;;;;;;;5028332;28;20461;-73
2023/04/05 06:05:58;;;;;;;12.63;5.97;;;;;;;;;;5026456;28;20033;-74
2023/04/05 06:08:26;;;;;;;14.70;7.80;;;;;;;;;;5022369;28;20528;-74
2023/04/05 06:10:52;;;;;;;22.57;9.70;;;;;;;;;;5025903;28;20021;-74
2023/04/05 06:13:18;;;;;;;17.60;8.13;;;;;;;;;;5019236;28;20033;-75
2023/04/05 06:15:44;;;;;;;16.00;7.93;;;;;;;;;;5027831;28;20104;-73
2023/04/05 06:18:10;;;;;;;17.87;8.10;;;;;;;;;;5024435;28;20516;-73
2023/04/05 06:20:39;;;;;;;19.30;8.20;;;;;;;;;;5022051;28;20021;-73
2023/04/05 06:23:08;;;;;;;24.07;8.80;;;;;;;;;;5021953;28;20033;-73
2023/04/05 06:25:34;;;;;;;22.90;8.57;;;;;;;;;;5026204;28;20490;-72
2023/04/05 06:28:03;;;;;;;21.87;7.70;;;;;;;;;;5025791;28;20152;-74
2023/04/05 06:30:29;;;;;;;17.53;8.17;;;;;;;;;;5027358;28;20025;-75
2023/04/05 06:32:55;;;;;;;19.90;7.50;;;;;;;;;;5025796;28;20075;-76
2023/04/05 06:35:23;;;;;;;20.73;8.40;;;;;;;;;;5026014;28;20103;-73
2023/04/05 06:37:50;;;;;;;20.57;9.00;;;;;;;;;;5024646;28;20041;-74
2023/04/05 06:40:16;;;;;;;22.90;8.63;;;;;;;;;;5013635;28;20029;-73
2023/04/05 06:42:42;;;;;;;18.23;7.40;;;;;;;;;;5020265;28;20119;-74
2023/04/05 06:45:09;;;;;;;20.57;8.40;;;;;;;;;;5017068;28;20462;-74
2023/04/05 06:47:35;;;;;;;19.57;9.07;;;;;;;;;;5023773;28;20099;-72
2023/04/05 06:50:02;;;;;;;20.03;7.77;;;;;;;;;;5021587;28;20029;-75
2023/04/05 06:52:28;;;;;;;19.37;8.93;;;;;;;;;;5023352;28;20059;-74
2023/04/05 06:54:54;;;;;;;16.67;7.33;;;;;;;;;;5017957;28;20054;-74
2023/04/05 06:57:19;;;;;;;16.47;8.60;;;;;;;;;;5019108;28;20404;-72
2023/04/05 06:59:45;;;;;;;23.47;9.33;;;;;;;;;;5025499;28;20048;-75
2023/04/05 07:02:11;;;;;;;21.80;8.27;;;;;;;;;;5020221;28;20030;-74
2023/04/05 07:04:36;;;;;;;20.37;8.77;;;;;;;;;;5019553;28;20017;-74
2023/04/05 07:07:02;;;;;;;11.90;6.97;;;;;;;;;;5017900;28;20034;-75
2023/04/05 07:09:31;;;;;;;21.07;9.27;;;;;;;;;;5017978;28;20116;-73
2023/04/05 07:11:58;;;;;;;17.20;8.00;;;;;;;;;;5014259;28;20120;-73
2023/04/05 07:14:24;;;;;;;20.70;9.20;;;;;;;;;;5015382;28;20038;-73
2023/04/05 07:16:54;;;;;;;19.33;8.23;;;;;;;;;;5017265;28;20041;-73
2023/04/05 07:19:20;;;;;;;19.57;7.87;;;;;;;;;;5016298;28;20041;-74
2023/04/05 07:21:48;;;;;;;19.30;9.73;;;;;;;;;;5017573;28;20034;-74
2023/04/05 07:24:13;;;;;;;16.63;7.77;;;;;;;;;;5016449;28;20034;-74
2023/04/05 07:26:39;;;;;;;22.03;8.37;;;;;;;;;;5024127;28;20032;-73
2023/04/05 07:29:07;;;;;;;26.60;8.83;;;;;;;;;;5019190;28;20067;-73
2023/04/05 07:31:34;;;;;;;20.80;8.03;;;;;;;;;;5016807;28;20048;-72
2023/04/05 07:34:06;;;;;;;20.30;10.07;;;;;;;;;;5021242;28;20148;-74
2023/04/05 07:36:32;;;;;;;15.87;7.83;;;;;;;;;;5019539;28;20520;-71
2023/04/05 07:39:00;;;;;;;16.70;7.70;;;;;;;;;;5016388;28;20112;-73
2023/04/05 07:41:30;;;;;;;16.40;8.33;;;;;;;;;;5023164;28;20096;-74
2023/04/05 07:44:00;;;;;;;24.77;7.43;;;;;;;;;;5019361;28;20048;-73
2023/04/05 07:46:26;;;;;;;14.00;7.47;;;;;;;;;;5018977;28;20037;-73
2023/04/05 07:48:52;;;;;;;15.53;7.50;;;;;;;;;;5017273;28;20044;-73
2023/04/05 07:51:18;;;;;;;14.67;6.60;;;;;;;;;;5021340;28;20072;-73
2023/04/05 07:53:44;;;;;;;14.97;7.87;;;;;;;;;;5014104;28;20585;-73
2023/04/05 07:56:11;;;;;;;13.67;5.10;;;;;;;;;;5016128;28;20026;-73
2023/04/05 07:58:40;;;;;;;12.87;5.23;;;;;;;;;;5015954;28;20645;-72
2023/04/05 08:01:06;;;;;;;11.40;4.40;;;;;;;;;;5015670;28;20025;-74
2023/04/05 08:03:35;;;;;;;6.97;4.37;;;;;;;;;;5019719;28;20426;-73
2023/04/05 08:06:16;;;;;;;11.20;4.83;;;;;;;;;;5016345;28;20044;-74
2023/04/05 08:08:43;;;;;;;11.13;5.03;;;;;;;;;;5023213;28;20041;-72
2023/04/05 08:11:09;;;;;;;7.60;4.67;;;;;;;;;;5020660;28;20025;-72
2023/04/05 08:13:37;;;;;;;11.60;3.90;;;;;;;;;;5017265;28;20520;-72
2023/04/05 08:16:03;;;;;;;8.00;4.00;;;;;;;;;;5022091;28;20044;-72
2023/04/05 08:18:29;;;;;;;6.93;4.27;;;;;;;;;;5018487;28;20033;-71
2023/04/05 08:20:56;;;;;;;10.30;3.97;;;;;;;;;;5017173;28;20112;-72
2023/04/05 08:23:22;;;;;;;9.03;4.63;;;;;;;;;;5022189;28;20112;-72
2023/04/05 08:25:49;;;;;;;14.77;4.63;;;;;;;;;;5022395;28;20045;-71
2023/04/05 08:28:15;;;;;;;12.97;4.73;;;;;;;;;;5021833;28;20033;-72
2023/04/05 08:30:45;;;;;;;9.63;4.23;;;;;;;;;;5017266;28;20030;-72
2023/04/05 08:33:11;;;;;;;13.00;10.03;;;;;;;;;;5022900;28;20044;-71
2023/04/05 08:35:38;;;;;;;10.43;5.33;;;;;;;;;;5022206;28;20029;-72
2023/04/05 08:38:05;;;;;;;7.13;4.23;;;;;;;;;;5016533;28;20142;-74
2023/04/05 08:40:49;;;;;;;8.63;3.93;;;;;;;;;;5014187;28;20018;-72
2023/04/05 08:43:27;;;;;;;5.80;3.87;;;;;;;;;;5013070;28;20381;-73
2023/04/05 08:46:00;;;;;;;9.13;4.40;;;;;;;;;;5011747;28;20030;-72
2023/04/05 08:48:29;;;;;;;9.63;3.90;;;;;;;;;;5011902;28;20030;-72
2023/04/05 08:50:55;;;;;;;11.03;4.47;;;;;;;;;;5014911;28;20457;-73
2023/04/05 08:53:21;;;;;;;10.20;4.90;;;;;;;;;;5018565;28;20038;-73
2023/04/05 08:55:54;;;;;;;8.07;3.97;;;;;;;;;;5008279;28;20147;-71
2023/04/05 08:58:21;;;;;;;9.57;3.53;;;;;;;;;;5009357;28;20560;-72
2023/04/05 09:00:49;;;;;;;8.40;3.90;;;;;;;;;;5020502;28;20477;-71
2023/04/05 09:03:20;;;;;;;5.90;3.83;;;;;;;;;;5015142;28;20041;-70
2023/04/05 09:05:50;;;;;;;6.57;4.82;;;;;;;;;;5017910;28;20080;-71
2023/04/05 09:08:17;;;;;;;6.20;4.40;;;;;;;;;;5025104;28;20033;-71
2023/04/05 09:10:43;;;;;;;8.73;5.00;;;;;;;;;;5018970;28;20050;-73
2023/04/05 09:13:09;;;;;;;10.50;4.37;;;;;;;;;;5019231;28;20041;-73
2023/04/05 09:15:40;;;;;;;9.17;4.40;;;;;;;;;;5020828;28;20088;-75
2023/04/05 09:18:10;;;;;;;11.47;5.00;;;;;;;;;;5019771;28;20087;-74
2023/04/05 09:20:36;;;;;;;7.87;4.57;;;;;;;;;;5019641;28;20033;-74
2023/04/05 09:23:02;;;;;;;9.03;4.90;;;;;;;;;;5011994;28;20128;-74
2023/04/05 09:25:31;;;;;;;7.97;3.97;;;;;;;;;;5012649;28;20033;-74
2023/04/05 09:28:04;;;;;;;7.70;4.03;;;;;;;;;;5014595;28;20079;-74
2023/04/05 09:30:31;;;;;;;6.90;4.07;;;;;;;;;;5035678;28;20417;-76
2023/04/05 09:32:58;;;;;;;8.07;3.60;;;;;;;;;;5019435;28;20128;-73
2023/04/05 09:35:31;;;;;;;7.50;3.53;;;;;;;;;;5016437;28;20487;-73
2023/04/05 09:37:59;;;;;;;7.30;3.43;;;;;;;;;;5019547;28;20053;-73
2023/04/05 09:40:51;;;;;;;5.27;3.43;;;;;;;;;;5018952;28;20030;-74
2023/04/05 09:43:38;;;;;;;5.00;3.67;;;;;;;;;;5011950;28;20053;-73
2023/04/05 09:46:05;;;;;;;10.83;4.73;;;;;;;;;;5018777;28;20033;-75
2023/04/05 09:48:47;;;;;;;9.87;4.83;;;;;;;;;;5019843;28;20040;-73
2023/04/05 09:51:16;;;;;;;;;;;;;;;;;;5020930;28;20036;-73
2023/04/05 09:54:05;;;;;;;9.80;3.93;;;;;;;;;;5018050;28;19913;-74
2023/04/05 09:56:35;;;;;;;5.03;3.60;;;;;;;;;;5016437;28;20125;-73
2023/04/05 09:59:09;;;;;;;7.93;4.00;;;;;;;;;;5007487;28;20053;-75
2023/04/05 10:01:38;;;;;;;5.33;4.00;;;;;;;;;;5014626;28;20044;-74
2023/04/05 10:04:05;;;;;;;6.10;4.37;;;;;;;;;;5012428;28;20029;-74
2023/04/05 10:06:39;;;;;;;7.33;3.47;;;;;;;;;;5011266;28;20033;-75
2023/04/05 10:09:08;;;;;;;9.70;4.23;;;;;;;;;;5024784;28;20096;-73
2023/04/05 10:11:36;;;;;;;9.30;5.03;;;;;;;;;;5022908;28;20095;-74
2023/04/05 10:14:05;;;;;;;9.17;4.40;;;;;;;;;;5022827;28;20033;-73
2023/04/05 10:16:58;;;;;;;7.33;3.93;;;;;;;;;;5020513;28;20114;-74
2023/04/05 10:19:54;;;;;;;8.37;3.60;;;;;;;;;;5016470;28;20035;-73
2023/04/05 10:22:35;;;;;;;5.60;3.53;;;;;;;;;;4982551;28;20603;-75
2023/04/05 10:25:44;;;;;;;5.13;3.30;;;;;;;;;;5018300;28;20332;-75
2023/04/05 10:28:14;;;;;;;7.43;4.07;;;;;;;;;;5019904;28;20022;-73
2023/04/05 10:30:45;;;;;;;8.70;3.80;;;;;;;;;;5013846;28;20726;-73
2023/04/05 10:33:20;;;;;;;5.90;3.63;;;;;;;;;;5016854;28;20029;-74
2023/04/05 10:35:51;;;;;;;11.60;3.70;;;;;;;;;;5020512;28;20072;-73
2023/04/05 10:38:24;;;;;;;7.67;3.40;;;;;;;;;;5016838;28;20143;-75
2023/04/05 10:41:15;;;;;;;13.30;4.38;;;;;;;;;;5014209;28;20128;-74
2023/04/05 10:43:42;;;;;;;4.38;3.42;;;;;;;;;;5007661;28;20078;-74
2023/04/05 10:46:10;;;;;;;6.33;3.90;;;;;;;;;;5018947;28;20508;-73
2023/04/05 10:49:00;;;;;;;6.72;4.38;;;;;;;;;;5011411;28;20033;-75
2023/04/05 10:51:28;;;;;;;4.43;3.00;;;;;;;;;;5019902;28;20022;-75
2023/04/05 10:53:56;;;;;;;4.85;3.30;;;;;;;;;;5012545;28;20035;-74
2023/04/05 10:56:23;;;;;;;6.43;4.18;;;;;;;;;;5017349;28;20477;-73
2023/04/05 10:58:50;;;;;;;13.75;3.88;;;;;;;;;;5016397;28;20022;-74
2023/04/05 11:01:17;;;;;;;5.70;3.00;;;;;;;;;;5007048;28;20465;-75
2023/04/05 11:03:53;;;;;;;7.05;3.63;;;;;;;;;;5016397;28;20626;-73
2023/04/05 11:06:29;;;;;;;5.38;3.20;;;;;;;;;;5013920;28;20032;-73
2023/04/05 11:09:17;;;;;;;7.38;3.33;;;;;;;;;;5019939;28;20121;-74
2023/04/05 11:12:03;;;;;;;3.75;2.90;;;;;;;;;;5017742;28;20547;-72
2023/04/05 11:14:39;;;;;;;6.32;3.33;;;;;;;;;;5008716;28;20139;-73
2023/04/05 11:17:24;;;;;;;5.43;3.05;;;;;;;;;;5017805;28;20101;-72
2023/04/05 11:19:53;;;;;;;5.47;3.17;;;;;;;;;;5015887;28;20064;-74
2023/04/05 11:22:52;;;;;;;6.45;3.13;;;;;;;;;;5018446;28;20029;-74
2023/04/05 11:25:23;;;;;;;4.50;3.08;;;;;;;;;;5018627;28;20522;-73
2023/04/05 11:28:00;;;;;;;7.93;3.73;;;;;;;;;;5023192;28;20168;-73
2023/04/05 11:30:47;;;;;;;5.82;3.35;;;;;;;;;;5017642;28;20030;-74
2023/04/05 11:33:52;;;;;;;8.75;3.63;;;;;;;;;;5016736;28;20547;-72
2023/04/05 11:36:35;;;;;;;4.90;2.80;;;;;;;;;;5018780;28;20111;-73
2023/04/05 11:39:22;;;;;;;7.03;3.25;;;;;;;;;;5021280;28;20032;-73
2023/04/05 11:42:06;;;;;;;3.92;2.67;;;;;;;;;;5024378;28;20461;-74
2023/04/05 11:44:50;;;;;;;6.30;2.95;;;;;;;;;;5037854;28;20052;-74
2023/04/05 11:47:20;;;;;;;5.15;2.95;;;;;;;;;;5020821;28;20478;-75
2023/04/05 11:49:50;;;;;;;7.55;3.33;;;;;;;;;;5017082;28;20033;-74
2023/04/05 11:52:20;;;;;;;5.78;2.95;;;;;;;;;;5024065;28;20059;-73
2023/04/05 11:54:47;;;;;;;5.15;2.70;;;;;;;;;;5017207;28;20017;-72
2023/04/05 11:57:24;;;;;;;4.70;2.67;;;;;;;;;;5022315;28;20420;-73
2023/04/05 11:59:53;;;;;;;4.65;2.95;;;;;;;;;;5016786;28;20555;-73
2023/04/05 12:02:19;;;;;;;8.02;3.00;;;;;;;;;;5028671;28;20636;-76
2023/04/05 12:04:56;;;;;;;6.93;2.95;;;;;;;;;;5013902;28;20123;-73
2023/04/05 12:07:25;;;;;;;6.68;2.78;;;;;;;;;;5017914;28;20597;-73
2023/04/05 12:10:14;;;;;;;5.30;2.90;;;;;;;;;;5017465;28;20057;-74
2023/04/05 12:12:42;;;;;;;5.60;3.03;;;;;;;;;;5020337;28;20135;-74
2023/04/05 12:15:13;;;;;;;5.28;3.33;;;;;;;;;;5016626;28;21934;-75
2023/04/05 12:17:48;;;;;;;7.18;3.53;;;;;;;;;;5023114;28;20037;-75
2023/04/05 12:20:19;;;;;;;5.13;3.63;;;;;;;;;;5021888;28;20477;-73
2023/04/05 12:22:48;;;;;;;4.90;2.88;;;;;;;;;;5000947;28;20037;-73
2023/04/05 12:25:15;;;;;;;4.65;3.08;;;;;;;;;;5020597;28;20040;-74
2023/04/05 12:27:42;;;;;;;6.80;2.95;;;;;;;;;;5017137;28;20517;-73
2023/04/05 12:30:16;;;;;;;5.43;2.67;;;;;;;;;;5029002;28;20408;-71
2023/04/05 12:32:51;;;;;;;5.80;2.88;;;;;;;;;;5028251;28;20044;-73
2023/04/05 12:35:19;;;;;;;6.97;2.92;;;;;;;;;;5014496;28;20080;-73
2023/04/05 12:37:45;;;;;;;3.95;2.72;;;;;;;;;;5014988;28;20046;-71
2023/04/05 12:40:12;;;;;;;6.88;3.40;;;;;;;;;;5017923;28;20033;-73
2023/04/05 12:42:39;;;;;;;6.07;2.50;;;;;;;;;;5018837;28;20080;-72
2023/04/05 12:45:10;;;;;;;5.93;2.83;;;;;;;;;;5019372;28;20036;-74
2023/04/05 12:47:47;;;;;;;3.88;2.65;;;;;;;;;;5017582;28;20033;-73
2023/04/05 12:50:15;;;;;;;4.55;2.28;;;;;;;;;;5018641;28;20289;-72
2023/04/05 12:52:57;;;;;;;5.13;2.33;;;;;;;;;;5024348;28;20037;-72
2023/04/05 12:55:25;;;;;;;;;;;;;;;;;;5018869;28;20100;-74
2023/04/05 12:57:58;;;;;;;2.50;1.73;;;;;;;;;;5023193;28;19921;-74
2023/04/05 13:00:28;;;;;;;5.55;3.22;;;;;;;;;;5018986;28;20036;-74
2023/04/05 13:02:56;;;;;;;8.20;2.50;;;;;;;;;;5014242;28;20037;-74
2023/04/05 13:05:28;;;;;;;5.75;2.50;;;;;;;;;;5014751;28;20128;-72
2023/04/05 13:07:54;;;;;;;;;;;;;;;;;;5015828;28;20033;-73
2023/04/05 13:10:22;;;;;;;4.00;2.42;;;;;;;;;;5020541;28;19921;-73
2023/04/05 13:12:48;;;;;;;5.95;3.33;;;;;;;;;;5017078;28;20822;-73
2023/04/05 13:15:15;;;;;;;4.85;2.60;;;;;;;;;;5021978;28;20036;-74
2023/04/05 13:17:48;;;;;;;8.75;3.08;;;;;;;;;;5021840;28;20059;-73
2023/04/05 13:20:16;;;;;;;6.93;3.88;;;;;;;;;;5018348;28;20033;-71
2023/04/05 13:22:42;;;;;;;5.85;3.45;;;;;;;;;;5022990;28;20024;-73
2023/04/05 13:25:09;;;;;;;5.68;3.13;;;;;;;;;;5021530;28;20061;-72
2023/04/05 13:27:34;;;;;;;6.00;2.47;;;;;;;;;;5022252;28;20025;-72
2023/04/05 13:30:00;;;;;;;6.72;2.78;;;;;;;;;;5018340;28;20037;-73
2023/04/05 13:32:26;;;;;;;6.60;2.63;;;;;;;;;;5016641;28;20034;-72
2023/04/05 13:34:52;;;;;;;7.13;3.70;;;;;;;;;;5021245;28;20038;-71
2023/04/05 13:37:18;;;;;;;6.82;2.78;;;;;;;;;;5019970;28;20079;-72
2023/04/05 13:39:44;;;;;;;7.55;3.85;;;;;;;;;;5015623;28;20668;-73
2023/04/05 13:42:10;;;;;;;4.53;2.67;;;;;;;;;;5016297;28;20061;-72
2023/04/05 13:44:37;;;;;;;3.25;2.25;;;;;;;;;;5015393;28;20125;-73
2023/04/05 13:47:03;;;;;;;3.42;2.30;;;;;;;;;;5017536;28;20045;-71
2023/04/05 13:49:29;;;;;;;9.55;2.97;;;;;;;;;;5014148;28;20025;-72
2023/04/05 13:51:55;;;;;;;4.38;2.58;;;;;;;;;;5013725;28;20072;-73
2023/04/05 13:54:21;;;;;;;4.20;2.70;;;;;;;;;;5022643;28;20049;-73
2023/04/05 13:56:47;;;;;;;4.47;2.88;;;;;;;;;;5024811;28;20421;-73
2023/04/05 13:59:16;;;;;;;6.53;3.20;;;;;;;;;;5022690;28;20503;-72
2023/04/05 14:01:45;;;;;;;6.28;3.30;;;;;;;;;;5022264;28;20560;-71
2023/04/05 14:04:11;;;;;;;6.15;3.30;;;;;;;;;;5012127;28;20102;-74
2023/04/05 14:06:37;;;;;;;7.97;3.10;;;;;;;;;;5020488;28;20500;-71
2023/04/05 14:09:03;;;;;;;9.70;3.13;;;;;;;;;;5013142;28;20021;-74
2023/04/05 14:11:29;;;;;;;10.93;6.40;;;;;;;;;;5017344;28;20021;-72
2023/04/05 14:13:55;;;;;;;9.40;4.10;;;;;;;;;;5017158;28;20527;-73
2023/04/05 14:16:20;;;;;;;4.25;3.28;;;;;;;;;;5013230;28;20024;-72
2023/04/05 14:18:47;;;;;;;6.47;3.65;;;;;;;;;;5019645;28;20056;-73
2023/04/05 14:21:13;;;;;;;7.32;2.60;;;;;;;;;;5016485;28;20026;-72
2023/04/05 14:23:38;;;;;;;6.20;3.17;;;;;;;;;;5017993;28;20037;-74
2023/04/05 14:26:04;;;;;;;6.47;2.60;;;;;;;;;;5028148;28;20107;-75
2023/04/05 14:28:30;;;;;;;4.72;3.55;;;;;;;;;;5020451;28;20029;-73
2023/04/05 14:30:57;;;;;;;4.82;3.33;;;;;;;;;;5019295;28;20020;-73
2023/04/05 14:33:23;;;;;;;14.35;3.13;;;;;;;;;;5016935;28;20112;-72
2023/04/05 14:35:48;;;;;;;5.28;3.05;;;;;;;;;;5022727;28;20108;-72
2023/04/05 14:38:14;;;;;;;4.90;2.97;;;;;;;;;;5016532;28;20026;-73
2023/04/05 14:40:40;;;;;;;7.85;3.13;;;;;;;;;;5013660;28;20366;-75
2023/04/05 14:43:06;;;;;;;5.43;2.45;;;;;;;;;;5012042;28;20045;-73
2023/04/05 14:45:33;;;;;;;5.35;2.78;;;;;;;;;;5010994;28;20045;-72
2023/04/05 14:47:59;;;;;;;5.63;2.78;;;;;;;;;;5019064;28;20033;-72